createdAt,value
2018-01-21T00:00:45.587Z,1001.54
2018-01-21T00:01:45.567Z,1001.57
2018-01-21T00:02:45.539Z,1001.61
2018-01-21T00:03:45.518Z,1001.66
2018-01-21T00:04:45.502Z,1001.65
2018-01-21T00:05:45.483Z,1001.70
2018-01-21T00:06:45.478Z,1001.70
2018-01-21T00:07:45.444Z,1001.73
2018-01-21T00:08:45.442Z,1001.72
2018-01-21T00:09:45.422Z,1001.74
2018-01-21T00:10:45.394Z,1001.75
2018-01-21T00:11:45.389Z,1001.79
2018-01-21T00:12:45.356Z,1001.86
2018-01-21T00:13:45.336Z,1001.83
2018-01-21T00:14:45.315Z,1001.86
2018-01-21T00:15:45.300Z,1001.87
2018-01-21T00:16:45.377Z,1001.89
2018-01-21T00:17:45.280Z,1001.91
2018-01-21T00:18:45.242Z,1001.91
2018-01-21T00:19:45.228Z,1001.93
2018-01-21T00:20:45.216Z,1001.92
2018-01-21T00:21:45.190Z,1001.98
2018-01-21T00:22:45.189Z,1001.98
2018-01-21T00:23:45.155Z,1001.99
2018-01-21T00:24:45.139Z,1001.97
2018-01-21T00:25:45.121Z,1002.03
2018-01-21T00:26:45.113Z,1001.99
2018-01-21T00:27:45.100Z,1002.06
2018-01-21T00:28:45.066Z,1002.08
2018-01-21T00:29:45.047Z,1002.10
2018-01-21T00:30:45.032Z,1002.09
2018-01-21T00:31:45.015Z,1002.07
2018-01-21T00:32:44.992Z,1002.12
2018-01-21T00:33:44.991Z,1002.10
2018-01-21T00:34:44.958Z,1002.15
2018-01-21T00:35:44.938Z,1002.15
2018-01-21T00:36:44.922Z,1002.16
2018-01-21T00:37:44.900Z,1002.17
2018-01-21T00:38:44.916Z,1002.22
2018-01-21T00:39:44.869Z,1002.23
2018-01-21T00:40:44.849Z,1002.25
2018-01-21T00:41:44.830Z,1002.28
2018-01-21T00:42:44.814Z,1002.30
2018-01-21T00:43:44.791Z,1002.32
2018-01-21T00:44:44.793Z,1002.34
2018-01-21T00:45:44.761Z,1002.38
2018-01-21T00:46:44.739Z,1002.41
2018-01-21T00:47:44.721Z,1002.44
2018-01-21T00:48:44.706Z,1002.45
2018-01-21T00:49:44.687Z,1002.49
2018-01-21T00:50:44.685Z,1002.56
2018-01-21T00:51:44.652Z,1002.58
2018-01-21T00:52:44.632Z,1002.57
2018-01-21T00:53:44.613Z,1002.61
2018-01-21T00:54:44.594Z,1002.62
2018-01-21T00:55:44.582Z,1002.61
2018-01-21T00:56:44.572Z,1002.63
2018-01-21T00:57:44.540Z,1002.62
2018-01-21T00:58:44.523Z,1002.63
2018-01-21T00:59:44.506Z,1002.65
2018-01-21T01:00:44.487Z,1002.69
2018-01-21T01:01:44.484Z,1002.73
2018-01-21T01:02:44.453Z,1002.73
2018-01-21T01:03:44.430Z,1002.77
2018-01-21T01:04:44.416Z,1002.83
2018-01-21T01:05:44.398Z,1002.86
2018-01-21T01:06:44.402Z,1002.87
2018-01-21T01:07:44.359Z,1002.86
2018-01-21T01:08:44.342Z,1002.92
2018-01-21T01:09:44.323Z,1002.98
2018-01-21T01:10:44.303Z,1003.00
2018-01-21T01:11:44.288Z,1003.02
2018-01-21T01:13:05.279Z,1003.09
2018-01-21T01:13:44.253Z,1003.10
2018-01-21T01:14:44.234Z,1003.09
2018-01-21T01:15:44.216Z,1003.08
2018-01-21T01:16:44.196Z,1003.11
2018-01-21T01:17:44.180Z,1003.17
2018-01-21T01:18:44.175Z,1003.15
2018-01-21T01:19:44.143Z,1003.22
2018-01-21T01:20:44.126Z,1003.21
2018-01-21T01:21:44.106Z,1003.25
2018-01-21T01:22:44.085Z,1003.29
2018-01-21T01:23:44.083Z,1003.31
2018-01-21T01:24:44.056Z,1003.30
2018-01-21T01:25:44.049Z,1003.31
2018-01-21T01:26:44.017Z,1003.35
2018-01-21T01:27:43.998Z,1003.42
2018-01-21T01:28:43.983Z,1003.40
2018-01-21T01:29:43.977Z,1003.43
2018-01-21T01:30:43.945Z,1003.48
2018-01-21T01:31:43.923Z,1003.46
2018-01-21T01:32:43.906Z,1003.49
2018-01-21T01:33:43.887Z,1003.48
2018-01-21T01:34:43.887Z,1003.50
2018-01-21T01:35:43.868Z,1003.56
2018-01-21T01:36:43.832Z,1003.59
2018-01-21T01:37:43.816Z,1003.62
2018-01-21T01:38:43.798Z,1003.64
2018-01-21T01:39:43.777Z,1003.64
2018-01-21T01:40:43.763Z,1003.64
2018-01-21T01:41:43.760Z,1003.70
2018-01-21T01:42:43.723Z,1003.75
2018-01-21T01:43:43.706Z,1003.76
2018-01-21T01:44:43.691Z,1003.79
2018-01-21T01:45:43.683Z,1003.82
2018-01-21T01:46:43.656Z,1003.82
2018-01-21T01:47:43.636Z,1003.82
2018-01-21T01:48:43.616Z,1003.83
2018-01-21T01:49:43.600Z,1003.89
2018-01-21T01:50:43.596Z,1003.88
2018-01-21T01:51:43.561Z,1003.90
2018-01-21T01:52:43.542Z,1003.95
2018-01-21T01:53:43.520Z,1003.95
2018-01-21T01:54:43.507Z,1003.97
2018-01-21T01:55:43.511Z,1003.95
2018-01-21T01:56:43.469Z,1004.01
2018-01-21T01:57:43.447Z,1004.01
2018-01-21T01:58:43.433Z,1004.02
2018-01-21T01:59:43.414Z,1004.07
2018-01-21T02:00:43.396Z,1004.11
2018-01-21T02:01:43.393Z,1004.12
2018-01-21T02:02:43.359Z,1004.10
2018-01-21T02:03:43.343Z,1004.15
2018-01-21T02:04:43.323Z,1004.14
2018-01-21T02:05:43.304Z,1004.17
2018-01-21T02:06:43.286Z,1004.26
2018-01-21T02:07:43.281Z,1004.27
2018-01-21T02:08:43.250Z,1004.29
2018-01-21T02:09:43.231Z,1004.26
2018-01-21T02:10:43.213Z,1004.25
2018-01-21T02:11:43.196Z,1004.21
2018-01-21T02:12:43.192Z,1004.27
2018-01-21T02:13:43.159Z,1004.28
2018-01-21T02:14:43.141Z,1004.32
2018-01-21T02:15:43.118Z,1004.36
2018-01-21T02:16:43.104Z,1004.36
2018-01-21T02:17:43.099Z,1004.36
2018-01-21T02:18:43.081Z,1004.38
2018-01-21T02:19:43.093Z,1004.40
2018-01-21T02:20:43.031Z,1004.42
2018-01-21T02:21:43.010Z,1004.40
2018-01-21T02:22:43.009Z,1004.44
2018-01-21T02:23:42.975Z,1004.47
2018-01-21T02:24:42.968Z,1004.47
2018-01-21T02:25:42.939Z,1004.52
2018-01-21T02:26:42.919Z,1004.52
2018-01-21T02:27:42.898Z,1004.53
2018-01-21T02:28:42.897Z,1004.53
2018-01-21T02:29:42.864Z,1004.52
2018-01-21T02:30:42.852Z,1004.55
2018-01-21T02:31:42.837Z,1004.56
2018-01-21T02:32:42.812Z,1004.52
2018-01-21T02:33:42.792Z,1004.51
2018-01-21T02:34:42.791Z,1004.52
2018-01-21T02:35:42.754Z,1004.61
2018-01-21T02:36:42.737Z,1004.64
2018-01-21T02:37:42.717Z,1004.64
2018-01-21T02:38:42.700Z,1004.59
2018-01-21T02:39:42.683Z,1004.66
2018-01-21T02:40:42.679Z,1004.72
2018-01-21T02:41:42.648Z,1004.75
2018-01-21T02:42:42.627Z,1004.80
2018-01-21T02:43:42.608Z,1004.81
2018-01-21T02:44:42.591Z,1004.79
2018-01-21T02:45:42.575Z,1004.78
2018-01-21T02:46:42.570Z,1004.84
2018-01-21T02:47:42.537Z,1004.85
2018-01-21T02:48:42.520Z,1004.86
2018-01-21T02:49:42.495Z,1004.86
2018-01-21T02:50:42.483Z,1004.92
2018-01-21T02:51:42.479Z,1004.93
2018-01-21T02:52:42.444Z,1004.94
2018-01-21T02:53:42.425Z,1004.95
2018-01-21T02:54:42.408Z,1005.00
2018-01-21T02:55:42.390Z,1005.06
2018-01-21T02:56:42.374Z,1005.06
2018-01-21T02:57:42.369Z,1005.14
2018-01-21T02:58:42.334Z,1005.18
2018-01-21T02:59:42.310Z,1005.19
2018-01-21T03:00:42.298Z,1005.19
2018-01-21T03:01:42.276Z,1005.19
2018-01-21T03:02:42.275Z,1005.23
2018-01-21T03:03:42.255Z,1005.21
2018-01-21T03:04:42.224Z,1005.28
2018-01-21T03:05:42.204Z,1005.24
2018-01-21T03:06:42.188Z,1005.27
2018-01-21T03:07:42.167Z,1005.27
2018-01-21T03:08:42.168Z,1005.30
2018-01-21T03:09:42.130Z,1005.28
2018-01-21T03:10:42.108Z,1005.30
2018-01-21T03:11:42.096Z,1005.36
2018-01-21T03:12:42.074Z,1005.35
2018-01-21T03:13:42.058Z,1005.37
2018-01-21T03:14:42.053Z,1005.43
2018-01-21T03:15:42.019Z,1005.41
2018-01-21T03:16:42.009Z,1005.44
2018-01-21T03:17:41.980Z,1005.48
2018-01-21T03:18:41.964Z,1005.50
2018-01-21T03:19:41.946Z,1005.51
2018-01-21T03:20:41.938Z,1005.51
2018-01-21T03:21:41.907Z,1005.53
2018-01-21T03:22:41.889Z,1005.54
2018-01-21T03:23:41.872Z,1005.55
2018-01-21T03:24:41.868Z,1005.61
2018-01-21T03:25:41.833Z,1005.65
2018-01-21T03:26:41.833Z,1005.62
2018-01-21T03:27:41.796Z,1005.66
2018-01-21T03:28:41.779Z,1005.63
2018-01-21T03:29:41.779Z,1005.66
2018-01-21T03:30:41.744Z,1005.74
2018-01-21T03:31:41.727Z,1005.70
2018-01-21T03:32:41.705Z,1005.80
2018-01-21T03:33:41.686Z,1005.76
2018-01-21T03:34:41.667Z,1005.79
2018-01-21T03:35:41.678Z,1005.82
2018-01-21T03:36:41.633Z,1005.84
2018-01-21T03:37:41.614Z,1005.86
2018-01-21T03:38:41.594Z,1005.88
2018-01-21T03:39:41.575Z,1005.91
2018-01-21T03:40:41.554Z,1005.95
2018-01-21T03:41:41.556Z,1005.99
2018-01-21T03:42:41.520Z,1005.98
2018-01-21T03:43:41.519Z,1005.99
2018-01-21T03:44:41.481Z,1005.98
2018-01-21T03:45:41.461Z,1006.01
2018-01-21T03:46:41.442Z,1006.00
2018-01-21T03:47:41.425Z,1006.04
2018-01-21T03:48:41.413Z,1006.02
2018-01-21T03:49:41.405Z,1006.03
2018-01-21T03:50:41.371Z,1006.04
2018-01-21T03:51:41.353Z,1006.08
2018-01-21T03:52:41.339Z,1006.05
2018-01-21T03:53:41.320Z,1006.10
2018-01-21T03:54:41.315Z,1006.19
2018-01-21T03:55:41.282Z,1006.14
2018-01-21T03:56:41.262Z,1006.26
2018-01-21T03:57:41.248Z,1006.21
2018-01-21T03:58:41.221Z,1006.28
2018-01-21T03:59:41.205Z,1006.29
2018-01-21T04:00:41.206Z,1006.36
2018-01-21T04:01:41.170Z,1006.31
2018-01-21T04:02:41.150Z,1006.36
2018-01-21T04:03:41.143Z,1006.39
2018-01-21T04:04:41.115Z,1006.38
2018-01-21T04:05:41.117Z,1006.39
2018-01-21T04:06:41.075Z,1006.41
2018-01-21T04:07:41.053Z,1006.43
2018-01-21T04:08:41.039Z,1006.47
2018-01-21T04:09:41.020Z,1006.47
2018-01-21T04:10:41.002Z,1006.48
2018-01-21T04:11:40.999Z,1006.50
2018-01-21T04:12:40.963Z,1006.50
2018-01-21T04:13:40.945Z,1006.53
2018-01-21T04:14:40.930Z,1006.51
2018-01-21T04:15:40.910Z,1006.55
2018-01-21T04:16:40.905Z,1006.55
2018-01-21T04:17:40.872Z,1006.55
2018-01-21T04:18:40.854Z,1006.56
2018-01-21T04:19:40.835Z,1006.58
2018-01-21T04:20:40.815Z,1006.57
2018-01-21T04:21:40.795Z,1006.65
2018-01-21T04:22:40.793Z,1006.64
2018-01-21T04:23:40.754Z,1006.66
2018-01-21T04:24:40.741Z,1006.70
2018-01-21T04:25:40.720Z,1006.73
2018-01-21T04:26:40.703Z,1006.77
2018-01-21T04:27:40.704Z,1006.76
2018-01-21T04:28:40.666Z,1006.81
2018-01-21T04:29:40.647Z,1006.85
2018-01-21T04:30:40.630Z,1006.84
2018-01-21T04:31:40.606Z,1006.88
2018-01-21T04:32:40.592Z,1006.90
2018-01-21T04:33:40.588Z,1006.96
2018-01-21T04:34:40.554Z,1006.93
2018-01-21T04:35:40.534Z,1006.98
2018-01-21T04:36:40.512Z,1006.98
2018-01-21T04:37:40.499Z,1007.01
2018-01-21T04:38:40.493Z,1007.04
2018-01-21T04:39:40.459Z,1007.07
2018-01-21T04:40:40.446Z,1007.07
2018-01-21T04:41:40.436Z,1007.06
2018-01-21T04:42:40.402Z,1007.10
2018-01-21T04:43:40.384Z,1007.13
2018-01-21T04:44:40.366Z,1007.18
2018-01-21T04:45:40.346Z,1007.18
2018-01-21T04:46:40.330Z,1007.19
2018-01-21T04:47:40.323Z,1007.14
2018-01-21T04:48:40.291Z,1007.22
2018-01-21T04:49:40.286Z,1007.18
2018-01-21T04:50:40.260Z,1007.19
2018-01-21T04:51:40.234Z,1007.18
2018-01-21T04:52:40.312Z,1007.22
2018-01-21T04:53:40.196Z,1007.23
2018-01-21T04:54:40.178Z,1007.28
2018-01-21T04:55:40.177Z,1007.24
2018-01-21T04:56:40.139Z,1007.28
2018-01-21T04:57:40.120Z,1007.34
2018-01-21T04:58:40.140Z,1007.37
2018-01-21T04:59:40.083Z,1007.37
2018-01-21T05:00:40.081Z,1007.41
2018-01-21T05:01:40.044Z,1007.42
2018-01-21T05:02:40.054Z,1007.43
2018-01-21T05:03:40.007Z,1007.46
2018-01-21T05:04:40.005Z,1007.46
2018-01-21T05:05:39.969Z,1007.50
2018-01-21T05:06:39.965Z,1007.50
2018-01-21T05:07:39.931Z,1007.50
2018-01-21T05:08:39.912Z,1007.49
2018-01-21T05:09:39.891Z,1007.52
2018-01-21T05:10:39.892Z,1007.55
2018-01-21T05:11:39.854Z,1007.53
2018-01-21T05:12:39.837Z,1007.57
2018-01-21T05:13:39.815Z,1007.56
2018-01-21T05:14:39.801Z,1007.62
2018-01-21T05:15:39.780Z,1007.60
2018-01-21T05:16:39.776Z,1007.54
2018-01-21T05:17:39.742Z,1007.63
2018-01-21T05:18:39.722Z,1007.64
2018-01-21T05:19:39.705Z,1007.64
2018-01-21T05:20:39.700Z,1007.66
2018-01-21T05:21:39.667Z,1007.64
2018-01-21T05:22:39.649Z,1007.61
2018-01-21T05:23:39.645Z,1007.58
2018-01-21T05:24:39.609Z,1007.64
2018-01-21T05:25:39.606Z,1007.61
2018-01-21T05:26:39.572Z,1007.66
2018-01-21T05:27:39.567Z,1007.66
2018-01-21T05:28:39.552Z,1007.68
2018-01-21T05:29:39.515Z,1007.71
2018-01-21T05:30:39.495Z,1007.67
2018-01-21T05:31:39.476Z,1007.72
2018-01-21T05:32:39.459Z,1007.74
2018-01-21T05:33:39.439Z,1007.72
2018-01-21T05:35:00.429Z,1007.75
2018-01-21T05:35:39.405Z,1007.78
2018-01-21T05:36:39.382Z,1007.76
2018-01-21T05:37:39.376Z,1007.77
2018-01-21T05:38:39.343Z,1007.78
2018-01-21T05:39:39.326Z,1007.84
2018-01-21T05:40:39.305Z,1007.81
2018-01-21T05:41:39.283Z,1007.80
2018-01-21T05:42:39.267Z,1007.83
2018-01-21T05:43:39.266Z,1007.86
2018-01-21T05:44:39.269Z,1007.85
2018-01-21T05:45:39.226Z,1007.88
2018-01-21T05:46:39.194Z,1007.88
2018-01-21T05:47:39.169Z,1007.94
2018-01-21T05:48:39.251Z,1007.98
2018-01-21T05:49:39.132Z,1007.98
2018-01-21T05:50:39.116Z,1007.99
2018-01-21T05:51:39.097Z,1007.98
2018-01-21T05:52:39.076Z,1008.03
2018-01-21T05:53:39.057Z,1008.04
2018-01-21T05:54:39.051Z,1008.08
2018-01-21T05:55:39.017Z,1008.06
2018-01-21T05:56:39.000Z,1008.07
2018-01-21T05:57:38.983Z,1008.10
2018-01-21T05:58:38.973Z,1008.05
2018-01-21T05:59:38.942Z,1008.15
2018-01-21T06:00:38.938Z,1008.13
2018-01-21T06:01:38.906Z,1008.18
2018-01-21T06:02:38.890Z,1008.18
2018-01-21T06:03:38.862Z,1008.18
2018-01-21T06:04:38.863Z,1008.21
2018-01-21T06:05:38.823Z,1008.22
2018-01-21T06:06:38.804Z,1008.23
2018-01-21T06:07:38.791Z,1008.28
2018-01-21T06:08:38.785Z,1008.28
2018-01-21T06:09:38.769Z,1008.32
2018-01-21T06:10:38.734Z,1008.37
2018-01-21T06:11:38.722Z,1008.39
2018-01-21T06:12:38.690Z,1008.45
2018-01-21T06:13:38.673Z,1008.47
2018-01-21T06:14:38.670Z,1008.52
2018-01-21T06:15:38.636Z,1008.55
2018-01-21T06:16:38.631Z,1008.57
2018-01-21T06:17:38.596Z,1008.56
2018-01-21T06:18:38.588Z,1008.56
2018-01-21T06:19:38.558Z,1008.58
2018-01-21T06:20:38.539Z,1008.60
2018-01-21T06:21:38.521Z,1008.67
2018-01-21T06:22:38.501Z,1008.69
2018-01-21T06:23:38.483Z,1008.68
2018-01-21T06:24:38.478Z,1008.69
2018-01-21T06:25:38.469Z,1008.73
2018-01-21T06:26:38.425Z,1008.73
2018-01-21T06:27:38.406Z,1008.75
2018-01-21T06:28:38.384Z,1008.78
2018-01-21T06:29:38.368Z,1008.81
2018-01-21T06:30:38.367Z,1008.83
2018-01-21T06:31:38.326Z,1008.90
2018-01-21T06:32:38.315Z,1008.89
2018-01-21T06:33:38.289Z,1008.96
2018-01-21T06:34:38.271Z,1008.97
2018-01-21T06:35:38.249Z,1008.99
2018-01-21T06:36:38.249Z,1009.03
2018-01-21T06:37:38.215Z,1009.04
2018-01-21T06:38:38.191Z,1009.08
2018-01-21T06:39:38.175Z,1009.10
2018-01-21T06:40:38.157Z,1009.13
2018-01-21T06:41:59.976Z,1009.12
2018-01-21T06:42:38.136Z,1009.14
2018-01-21T06:43:38.211Z,1009.19
2018-01-21T06:44:38.089Z,1009.21
2018-01-21T06:45:38.093Z,1009.21
2018-01-21T06:46:38.084Z,1009.23
2018-01-21T06:47:38.051Z,1009.29
2018-01-21T06:48:38.054Z,1009.24
2018-01-21T06:49:37.999Z,1009.29
2018-01-21T06:50:38.000Z,1009.32
2018-01-21T06:51:38.053Z,1009.33
2018-01-21T06:52:37.998Z,1009.35
2018-01-21T06:53:37.952Z,1009.35
2018-01-21T06:54:37.893Z,1009.34
2018-01-21T06:55:37.873Z,1009.36
2018-01-21T06:56:37.854Z,1009.41
2018-01-21T06:57:37.856Z,1009.40
2018-01-21T06:58:37.816Z,1009.41
2018-01-21T06:59:37.800Z,1009.42
2018-01-21T07:00:37.779Z,1009.44
2018-01-21T07:01:37.760Z,1009.50
2018-01-21T07:02:37.754Z,1009.54
2018-01-21T07:03:37.741Z,1009.57
2018-01-21T07:04:37.704Z,1009.55
2018-01-21T07:05:37.684Z,1009.59
2018-01-21T07:06:37.666Z,1009.61
2018-01-21T07:07:37.644Z,1009.59
2018-01-21T07:08:37.675Z,1009.64
2018-01-21T07:09:37.645Z,1009.66
2018-01-21T07:10:37.607Z,1009.64
2018-01-21T07:11:37.572Z,1009.67
2018-01-21T07:12:37.570Z,1009.68
2018-01-21T07:13:37.533Z,1009.71
2018-01-21T07:14:37.512Z,1009.69
2018-01-21T07:15:37.494Z,1009.67
2018-01-21T07:16:37.477Z,1009.66
2018-01-21T07:17:37.457Z,1009.72
2018-01-21T07:18:37.457Z,1009.74
2018-01-21T07:19:37.416Z,1009.82
2018-01-21T07:20:37.401Z,1009.82
2018-01-21T07:21:37.379Z,1009.86
2018-01-21T07:22:37.363Z,1009.86
2018-01-21T07:23:37.340Z,1009.87
2018-01-21T07:24:37.339Z,1009.87
2018-01-21T07:25:37.309Z,1009.91
2018-01-21T07:26:37.304Z,1009.94
2018-01-21T07:27:37.269Z,1009.92
2018-01-21T07:28:37.248Z,1009.95
2018-01-21T07:29:37.228Z,1009.97
2018-01-21T07:30:37.204Z,1010.00
2018-01-21T07:31:37.189Z,1010.02
2018-01-21T07:32:37.193Z,1010.04
2018-01-21T07:33:37.149Z,1010.06
2018-01-21T07:34:37.133Z,1010.11
2018-01-21T07:35:37.114Z,1010.10
2018-01-21T07:36:37.094Z,1010.07
2018-01-21T07:37:37.076Z,1010.11
2018-01-21T07:38:37.074Z,1010.11
2018-01-21T07:39:37.039Z,1010.12
2018-01-21T07:40:37.020Z,1010.17
2018-01-21T07:41:37.000Z,1010.12
2018-01-21T07:42:37.027Z,1010.16
2018-01-21T07:43:36.962Z,1010.19
2018-01-21T07:44:36.943Z,1010.16
2018-01-21T07:45:36.923Z,1010.21
2018-01-21T07:46:36.904Z,1010.29
2018-01-21T07:47:36.905Z,1010.30
2018-01-21T07:48:36.869Z,1010.35
2018-01-21T07:49:36.845Z,1010.34
2018-01-21T07:50:36.830Z,1010.33
2018-01-21T07:51:36.812Z,1010.35
2018-01-21T07:52:36.806Z,1010.31
2018-01-21T07:53:36.769Z,1010.34
2018-01-21T07:54:36.755Z,1010.36
2018-01-21T07:55:36.738Z,1010.42
2018-01-21T07:56:36.715Z,1010.42
2018-01-21T07:57:36.712Z,1010.44
2018-01-21T07:58:36.678Z,1010.49
2018-01-21T07:59:36.660Z,1010.52
2018-01-21T08:00:36.643Z,1010.49
2018-01-21T08:01:36.623Z,1010.57
2018-01-21T08:02:36.602Z,1010.53
2018-01-21T08:03:36.596Z,1010.58
2018-01-21T08:04:36.579Z,1010.54
2018-01-21T08:05:36.543Z,1010.59
2018-01-21T08:06:36.532Z,1010.60
2018-01-21T08:07:36.512Z,1010.63
2018-01-21T08:08:36.508Z,1010.61
2018-01-21T08:09:36.471Z,1010.66
2018-01-21T08:10:36.454Z,1010.66
2018-01-21T08:11:36.433Z,1010.74
2018-01-21T08:12:36.419Z,1010.73
2018-01-21T08:13:36.396Z,1010.79
2018-01-21T08:14:36.394Z,1010.77
2018-01-21T08:15:36.374Z,1010.84
2018-01-21T08:16:57.350Z,1010.84
2018-01-21T08:17:36.320Z,1010.86
2018-01-21T08:18:36.299Z,1010.89
2018-01-21T08:19:36.283Z,1010.88
2018-01-21T08:20:36.264Z,1010.92
2018-01-21T08:21:36.246Z,1010.95
2018-01-21T08:22:36.240Z,1010.95
2018-01-21T08:23:36.207Z,1010.96
2018-01-21T08:24:36.188Z,1011.01
2018-01-21T08:25:36.168Z,1011.00
2018-01-21T08:26:36.152Z,1011.01
2018-01-21T08:27:36.146Z,1011.05
2018-01-21T08:28:36.113Z,1011.03
2018-01-21T08:29:36.095Z,1011.02
2018-01-21T08:30:36.074Z,1011.05
2018-01-21T08:31:36.071Z,1011.06
2018-01-21T08:32:36.039Z,1011.07
2018-01-21T08:33:36.036Z,1011.07
2018-01-21T08:34:36.000Z,1011.08
2018-01-21T08:35:35.981Z,1011.06
2018-01-21T08:36:35.962Z,1011.07
2018-01-21T08:37:35.943Z,1011.13
2018-01-21T08:38:35.943Z,1011.11
2018-01-21T08:39:35.906Z,1011.13
2018-01-21T08:40:35.888Z,1011.15
2018-01-21T08:41:35.889Z,1011.18
2018-01-21T08:42:35.852Z,1011.17
2018-01-21T08:43:35.848Z,1011.16
2018-01-21T08:44:35.816Z,1011.19
2018-01-21T08:45:35.794Z,1011.13
2018-01-21T08:46:35.775Z,1011.19
2018-01-21T08:47:35.768Z,1011.16
2018-01-21T08:48:35.739Z,1011.15
2018-01-21T08:49:35.739Z,1011.19
2018-01-21T08:50:35.702Z,1011.21
2018-01-21T08:51:35.685Z,1011.20
2018-01-21T08:52:35.665Z,1011.22
2018-01-21T08:53:35.647Z,1011.21
2018-01-21T08:54:35.644Z,1011.21
2018-01-21T08:55:35.611Z,1011.19
2018-01-21T08:56:35.593Z,1011.28
2018-01-21T08:57:35.574Z,1011.29
2018-01-21T08:58:35.556Z,1011.29
2018-01-21T08:59:35.537Z,1011.34
2018-01-21T09:00:35.532Z,1011.27
2018-01-21T09:01:35.518Z,1011.29
2018-01-21T09:02:35.487Z,1011.30
2018-01-21T09:03:35.466Z,1011.31
2018-01-21T09:04:35.448Z,1011.33
2018-01-21T09:05:35.427Z,1011.34
2018-01-21T09:06:35.420Z,1011.34
2018-01-21T09:07:35.393Z,1011.35
2018-01-21T09:08:35.376Z,1011.39
2018-01-21T09:09:35.348Z,1011.35
2018-01-21T09:10:35.338Z,1011.37
2018-01-21T09:11:35.333Z,1011.43
2018-01-21T09:12:35.299Z,1011.46
2018-01-21T09:13:35.283Z,1011.39
2018-01-21T09:14:35.263Z,1011.44
2018-01-21T09:15:35.249Z,1011.44
2018-01-21T09:16:35.228Z,1011.53
2018-01-21T09:17:35.242Z,1011.50
2018-01-21T09:18:35.186Z,1011.51
2018-01-21T09:19:35.174Z,1011.52
2018-01-21T09:20:35.149Z,1011.55
2018-01-21T09:21:35.129Z,1011.56
2018-01-21T09:22:35.119Z,1011.59
2018-01-21T09:23:35.115Z,1011.60
2018-01-21T09:24:35.082Z,1011.62
2018-01-21T09:25:35.065Z,1011.62
2018-01-21T09:26:35.045Z,1011.63
2018-01-21T09:27:35.025Z,1011.66
2018-01-21T09:28:35.014Z,1011.67
2018-01-21T09:29:35.006Z,1011.70
2018-01-21T09:30:34.971Z,1011.73
2018-01-21T09:31:34.954Z,1011.70
2018-01-21T09:32:34.935Z,1011.72
2018-01-21T09:33:34.934Z,1011.73
2018-01-21T09:34:34.894Z,1011.74
2018-01-21T09:35:34.898Z,1011.75
2018-01-21T09:36:34.865Z,1011.79
2018-01-21T09:37:34.849Z,1011.79
2018-01-21T09:38:34.830Z,1011.80
2018-01-21T09:39:34.811Z,1011.76
2018-01-21T09:40:34.809Z,1011.82
2018-01-21T09:41:34.775Z,1011.85
2018-01-21T09:42:34.759Z,1011.91
2018-01-21T09:43:34.739Z,1011.95
2018-01-21T09:44:34.746Z,1011.94
2018-01-21T09:45:34.710Z,1011.93
2018-01-21T09:46:34.701Z,1011.95
2018-01-21T09:47:34.668Z,1011.95
2018-01-21T09:48:34.650Z,1011.97
2018-01-21T09:49:34.636Z,1011.96
2018-01-21T09:50:34.616Z,1012.02
2018-01-21T09:51:34.639Z,1012.05
2018-01-21T09:52:34.581Z,1012.03
2018-01-21T09:53:34.561Z,1012.07
2018-01-21T09:54:34.555Z,1012.08
2018-01-21T09:55:34.529Z,1012.14
2018-01-21T09:56:34.526Z,1012.15
2018-01-21T09:57:34.505Z,1012.15
2018-01-21T09:58:34.477Z,1012.23
2018-01-21T09:59:34.454Z,1012.24
2018-01-21T10:00:34.442Z,1012.25
2018-01-21T10:01:34.422Z,1012.27
2018-01-21T10:02:34.421Z,1012.28
2018-01-21T10:03:34.388Z,1012.30
2018-01-21T10:04:34.371Z,1012.29
2018-01-21T10:05:34.353Z,1012.30
2018-01-21T10:06:34.332Z,1012.28
2018-01-21T10:07:34.318Z,1012.28
2018-01-21T10:08:34.316Z,1012.26
2018-01-21T10:09:34.286Z,1012.29
2018-01-21T10:10:34.270Z,1012.29
2018-01-21T10:11:34.246Z,1012.33
2018-01-21T10:12:34.233Z,1012.31
2018-01-21T10:13:34.366Z,1012.28
2018-01-21T10:14:34.199Z,1012.28
2018-01-21T10:15:34.183Z,1012.30
2018-01-21T10:16:34.167Z,1012.30
2018-01-21T10:17:34.148Z,1012.35
2018-01-21T10:18:34.147Z,1012.34
2018-01-21T10:19:34.111Z,1012.34
2018-01-21T10:20:34.099Z,1012.42
2018-01-21T10:21:34.081Z,1012.40
2018-01-21T10:22:34.079Z,1012.46
2018-01-21T10:23:34.045Z,1012.49
2018-01-21T10:24:34.152Z,1012.55
2018-01-21T10:25:34.014Z,1012.53
2018-01-21T10:26:33.996Z,1012.54
2018-01-21T10:27:33.980Z,1012.52
2018-01-21T10:28:33.983Z,1012.60
2018-01-21T10:29:33.955Z,1012.64
2018-01-21T10:30:33.926Z,1012.61
2018-01-21T10:31:33.910Z,1012.62
2018-01-21T10:32:33.936Z,1012.60
2018-01-21T10:33:33.875Z,1012.60
2018-01-21T10:34:33.872Z,1012.59
2018-01-21T10:35:33.843Z,1012.61
2018-01-21T10:36:33.822Z,1012.63
2018-01-21T10:37:33.809Z,1012.67
2018-01-21T10:38:34.103Z,1012.68
2018-01-21T10:39:33.799Z,1012.70
2018-01-21T10:40:33.759Z,1012.67
2018-01-21T10:41:33.741Z,1012.68
2018-01-21T10:42:33.728Z,1012.72
2018-01-21T10:43:33.712Z,1012.74
2018-01-21T10:44:33.695Z,1012.77
2018-01-21T10:45:33.693Z,1012.72
2018-01-21T10:46:33.660Z,1012.75
2018-01-21T10:47:33.641Z,1012.68
2018-01-21T10:48:33.626Z,1012.70
2018-01-21T10:49:33.609Z,1012.74
2018-01-21T10:50:33.605Z,1012.74
2018-01-21T10:51:33.596Z,1012.72
2018-01-21T10:52:33.565Z,1012.74
2018-01-21T10:53:33.544Z,1012.73
2018-01-21T10:54:33.531Z,1012.75
2018-01-21T10:55:33.511Z,1012.75
2018-01-21T10:56:33.509Z,1012.80
2018-01-21T10:57:33.492Z,1012.80
2018-01-21T10:58:33.462Z,1012.83
2018-01-21T10:59:33.448Z,1012.77
2018-01-21T11:00:33.433Z,1012.79
2018-01-21T11:01:33.414Z,1012.76
2018-01-21T11:02:33.413Z,1012.79
2018-01-21T11:03:33.401Z,1012.84
2018-01-21T11:04:33.367Z,1012.90
2018-01-21T11:05:33.351Z,1012.93
2018-01-21T11:06:33.336Z,1012.88
2018-01-21T11:07:33.322Z,1012.92
2018-01-21T11:08:33.306Z,1012.93
2018-01-21T11:09:33.303Z,1012.94
2018-01-21T11:10:33.272Z,1012.89
2018-01-21T11:11:33.252Z,1012.89
2018-01-21T11:12:33.255Z,1012.92
2018-01-21T11:13:33.240Z,1012.94
2018-01-21T11:14:33.207Z,1012.90
2018-01-21T11:15:33.190Z,1012.97
2018-01-21T11:16:33.177Z,1012.98
2018-01-21T11:17:33.172Z,1012.94
2018-01-21T11:18:33.147Z,1012.92
2018-01-21T11:19:33.150Z,1012.93
2018-01-21T11:20:33.113Z,1012.88
2018-01-21T11:21:33.099Z,1012.94
2018-01-21T11:22:33.081Z,1012.94
2018-01-21T11:23:33.065Z,1012.93
2018-01-21T11:24:33.048Z,1012.92
2018-01-21T11:25:33.049Z,1012.87
2018-01-21T11:26:33.021Z,1012.88
2018-01-21T11:27:33.004Z,1012.89
2018-01-21T11:28:32.987Z,1012.90
2018-01-21T11:29:32.991Z,1012.91
2018-01-21T11:30:32.953Z,1012.98
2018-01-21T11:31:32.943Z,1012.90
2018-01-21T11:32:32.943Z,1012.93
2018-01-21T11:33:32.914Z,1012.88
2018-01-21T11:34:32.898Z,1012.88
2018-01-21T11:35:32.879Z,1012.92
2018-01-21T11:36:32.867Z,1012.92
2018-01-21T11:37:32.866Z,1012.91
2018-01-21T11:38:32.841Z,1012.91
2018-01-21T11:39:32.828Z,1012.90
2018-01-21T11:40:32.812Z,1012.87
2018-01-21T11:41:32.798Z,1012.85
2018-01-21T11:42:32.799Z,1012.85
2018-01-21T11:43:32.767Z,1012.87
2018-01-21T11:44:32.750Z,1012.85
2018-01-21T11:45:32.737Z,1012.83
2018-01-21T11:46:32.718Z,1012.83
2018-01-21T11:47:32.706Z,1012.79
2018-01-21T11:48:32.709Z,1012.77
2018-01-21T11:49:32.680Z,1012.80
2018-01-21T11:50:32.662Z,1012.74
2018-01-21T11:51:32.649Z,1012.77
2018-01-21T11:52:32.643Z,1012.80
2018-01-21T11:53:32.636Z,1012.85
2018-01-21T11:54:32.622Z,1012.88
2018-01-21T11:55:32.592Z,1012.89
2018-01-21T11:56:32.575Z,1012.84
2018-01-21T11:57:32.559Z,1012.86
2018-01-21T11:58:32.542Z,1012.82
2018-01-21T11:59:32.544Z,1012.89
2018-01-21T12:00:32.516Z,1012.84
2018-01-21T12:01:32.499Z,1012.85
2018-01-21T12:02:32.485Z,1012.84
2018-01-21T12:03:32.475Z,1012.83
2018-01-21T12:04:32.471Z,1012.80
2018-01-21T12:05:32.437Z,1012.81